Ana Sayfa
METAR-TAF:

METAR-TAF

Havaalanları :

Şanlıurfa GAP Havalimanı

Şanlıurfa, Türkiye

Enlem: 37-27N, Boylam: 38-54E, yükseklik: 823 m

Güncel hava durumu gözlemi

Rapor saat 18:20 UTC de 50 dakika önce yapıldı.
Rüzgar batı/kuzeybatıdan 7 kt
Sıcaklık 21°C
Nem 43%
Basınç 1019 hPa
Görüş mesafesi 10 km veya daha fazla
1500 m altında bulut yok ve kümülonimbus yok

METAR: LTCS 181820Z 29007KT CAVOK 21/08 Q1019 RMK RWY22 32003KT 290V360

Saat: 22:10 (19:10 UTC)

Tahmin

Rapor saat 16:40 UTC de 2 saat ve 30 dakika önce yapıldı.
Ayın 18'si saat 18 UTC'den ayın 19'si saat 18 UTC'ye kadar geçerli Tahmin
Rüzgar kuzey/kuzeybatıdan 7 kt
Görüş mesafesi 10 km veya daha fazla
1500 m altında bulut yok ve kümülonimbus yok
Dönüşüyor
ayın 19'si saat 06 UTC'den ayın 19'si saat 08 UTC'ye kadar
4000 ft yükseklikte parçalı bulutlu
10000 ft yükseklikte parçalı çok bulutlu

TAF: LTCS 181640Z 1818/1918 34007KT CAVOK BECMG 1906/1908 SCT040 BKN100

4.000'den fazla havaalanı için hava durumu gözlemleri ve tahminleri (METAR ve TAF raporları).

Kullanılabilir istasyonlar harita üzerinde sarı ve kırmızı noktalarla gösterilir.

İstasyonun adını görmek için fareyi noktanın üzerinde gezdirin.

Sonrasında hava gözlem ve tahminlerini görmek için tıklayın.

Haritayı değiştirmek için: yaklaştırmak için siyah artı işaretli yeşil düğmeye ve uzaklaştırmak için de eksi işaretli düğmeye hızla tıklayın; bitişik haritalar için yeşil okları kullanın.


METAR-TAF: